createdAt,value
2018-10-01T00:00:44.648Z,18.90
2018-10-01T00:03:12.048Z,18.90
2018-10-01T00:05:39.123Z,18.90
2018-10-01T00:08:06.196Z,18.90
2018-10-01T00:10:33.279Z,18.90
2018-10-01T00:13:00.631Z,18.90
2018-10-01T00:15:27.865Z,18.90
2018-10-01T00:17:54.985Z,18.90
2018-10-01T00:20:27.815Z,18.90
2018-10-01T00:22:54.911Z,18.90
2018-10-01T00:25:22.012Z,18.90
2018-10-01T00:27:49.091Z,18.90
2018-10-01T00:30:16.241Z,18.90
2018-10-01T00:32:43.341Z,18.90
2018-10-01T00:35:10.464Z,18.90
2018-10-01T00:37:37.600Z,18.90
2018-10-01T00:40:04.756Z,18.90
2018-10-01T00:42:32.018Z,18.90
2018-10-01T00:44:59.131Z,18.90
2018-10-01T00:47:26.231Z,18.90
2018-10-01T00:49:53.311Z,18.90
2018-10-01T00:52:20.402Z,18.90
2018-10-01T00:54:47.540Z,18.90
2018-10-01T00:57:14.635Z,18.90
2018-10-01T00:59:41.722Z,18.90
2018-10-01T01:02:08.818Z,18.90
2018-10-01T01:04:35.927Z,18.90
2018-10-01T01:07:03.051Z,18.90
2018-10-01T01:09:30.144Z,18.90
2018-10-01T01:11:57.248Z,18.90
2018-10-01T01:14:24.902Z,18.90
2018-10-01T01:16:51.991Z,18.90
2018-10-01T01:19:19.078Z,18.90
2018-10-01T01:21:46.196Z,18.90
2018-10-01T01:24:13.286Z,18.90
2018-10-01T01:26:40.418Z,18.90
2018-10-01T01:29:07.496Z,18.90
2018-10-01T01:31:34.620Z,18.90
2018-10-01T01:34:01.958Z,18.90
2018-10-01T01:36:29.054Z,18.90
2018-10-01T01:38:56.144Z,18.90
2018-10-01T01:41:23.237Z,18.90
2018-10-01T01:43:50.318Z,18.90
2018-10-01T01:46:17.471Z,18.90
2018-10-01T01:48:44.556Z,18.90
2018-10-01T01:51:11.664Z,18.90
2018-10-01T01:53:38.760Z,18.90
2018-10-01T01:56:05.961Z,18.90
2018-10-01T01:58:33.060Z,18.90
2018-10-01T02:01:00.179Z,18.90
2018-10-01T02:03:27.290Z,18.90
2018-10-01T02:05:54.390Z,18.90
2018-10-01T02:08:21.480Z,18.90
2018-10-01T02:10:48.584Z,18.90
2018-10-01T02:13:15.684Z,18.90
2018-10-01T02:15:42.808Z,18.90
2018-10-01T02:18:09.895Z,18.90
2018-10-01T02:20:36.960Z,18.90
2018-10-01T02:23:04.056Z,18.90
2018-10-01T02:25:31.144Z,18.90
2018-10-01T02:27:58.248Z,18.90
2018-10-01T02:30:25.341Z,18.90
2018-10-01T02:32:52.424Z,18.90
2018-10-01T02:35:19.524Z,18.90
2018-10-01T02:37:46.650Z,18.80
2018-10-01T02:40:13.787Z,18.90
2018-10-01T02:42:40.925Z,18.90
2018-10-01T02:45:08.027Z,18.90
2018-10-01T02:47:35.188Z,18.90
2018-10-01T02:50:02.237Z,18.90
2018-10-01T02:52:35.032Z,18.90
2018-10-01T02:55:02.132Z,18.90
2018-10-01T02:57:29.224Z,18.80
2018-10-01T02:59:56.345Z,18.80
2018-10-01T03:02:23.439Z,18.90
2018-10-01T03:04:50.556Z,18.80
2018-10-01T03:07:17.656Z,18.80
2018-10-01T03:09:44.771Z,18.80
2018-10-01T03:12:11.929Z,18.80
2018-10-01T03:14:39.014Z,18.80
2018-10-01T03:17:06.487Z,18.90
2018-10-01T03:19:33.577Z,18.80
2018-10-01T03:22:00.649Z,18.80
2018-10-01T03:24:27.763Z,18.80
2018-10-01T03:26:54.854Z,18.80
2018-10-01T03:29:21.953Z,18.80
2018-10-01T03:31:49.047Z,18.80
2018-10-01T03:34:16.160Z,18.80
2018-10-01T03:36:43.247Z,18.80
2018-10-01T03:39:10.465Z,18.80
2018-10-01T03:41:38.031Z,18.80
2018-10-01T03:44:05.095Z,18.80
2018-10-01T03:46:32.194Z,18.80
2018-10-01T03:48:59.265Z,18.80
2018-10-01T03:51:26.339Z,18.80
2018-10-01T03:53:53.422Z,18.80
2018-10-01T03:56:20.508Z,18.80
2018-10-01T03:58:47.640Z,18.80
2018-10-01T04:01:14.730Z,18.80
2018-10-01T04:03:41.825Z,18.80
2018-10-01T04:06:08.947Z,18.80
2018-10-01T04:08:36.021Z,18.80
2018-10-01T04:11:03.120Z,18.80
2018-10-01T04:13:30.204Z,18.80
2018-10-01T04:15:57.310Z,18.80
2018-10-01T04:18:24.404Z,18.80
2018-10-01T04:20:51.506Z,18.80
2018-10-01T04:23:18.604Z,18.80
2018-10-01T04:25:45.687Z,18.80
2018-10-01T04:28:12.797Z,18.80
2018-10-01T04:30:39.894Z,18.80
2018-10-01T04:33:06.985Z,18.80
2018-10-01T04:35:34.083Z,18.80
2018-10-01T04:38:01.187Z,18.80
2018-10-01T04:40:28.303Z,18.80
2018-10-01T04:42:55.416Z,18.80
2018-10-01T04:45:22.516Z,18.80
2018-10-01T04:47:49.604Z,18.80
2018-10-01T04:50:16.679Z,18.80
2018-10-01T04:52:43.798Z,18.80
2018-10-01T04:55:10.900Z,18.80
2018-10-01T04:57:37.995Z,18.80
2018-10-01T05:00:05.761Z,18.80
2018-10-01T05:02:32.910Z,18.80
2018-10-01T05:05:00.008Z,18.80
2018-10-01T05:07:27.103Z,18.80
2018-10-01T05:09:54.219Z,18.90
2018-10-01T05:12:21.323Z,18.90
2018-10-01T05:14:48.445Z,18.90
2018-10-01T05:17:15.963Z,18.90
2018-10-01T05:19:43.095Z,18.90
2018-10-01T05:22:10.195Z,18.90
2018-10-01T05:24:37.278Z,18.90
2018-10-01T05:27:04.424Z,18.90
2018-10-01T05:29:31.483Z,18.90
2018-10-01T05:31:58.572Z,18.90
2018-10-01T05:34:25.644Z,18.90
2018-10-01T05:36:52.774Z,18.90
2018-10-01T05:39:19.861Z,18.90
2018-10-01T05:41:46.952Z,18.90
2018-10-01T05:44:14.075Z,18.90
2018-10-01T05:46:41.186Z,18.90
2018-10-01T05:49:08.287Z,18.80
2018-10-01T05:51:35.387Z,18.80
2018-10-01T05:54:02.516Z,18.80
2018-10-01T05:56:30.314Z,18.80
2018-10-01T05:58:57.415Z,18.80
2018-10-01T06:01:24.540Z,18.80
2018-10-01T06:03:51.747Z,18.80
2018-10-01T06:06:18.951Z,18.70
2018-10-01T06:08:46.148Z,18.70
2018-10-01T06:11:13.275Z,18.70
2018-10-01T06:13:40.447Z,18.70
2018-10-01T06:16:07.748Z,18.80
2018-10-01T06:18:34.850Z,18.70
2018-10-01T06:21:01.980Z,18.70
2018-10-01T06:23:29.095Z,18.60
2018-10-01T06:25:56.220Z,18.30
2018-10-01T06:28:23.331Z,18.00
2018-10-01T06:30:50.711Z,17.70
2018-10-01T06:33:17.838Z,17.50
2018-10-01T06:35:44.928Z,17.50
2018-10-01T06:38:11.995Z,17.60
2018-10-01T06:40:39.144Z,17.90
2018-10-01T06:43:06.418Z,18.10
2018-10-01T06:45:33.529Z,18.30
2018-10-01T06:48:00.641Z,18.40
2018-10-01T06:50:27.772Z,18.50
2018-10-01T06:52:54.856Z,18.60
2018-10-01T06:55:21.975Z,18.60
2018-10-01T06:57:49.068Z,18.70
2018-10-01T07:00:16.153Z,18.70
2018-10-01T07:02:43.243Z,18.70
2018-10-01T07:05:10.356Z,18.80
2018-10-01T07:07:37.451Z,19.00
2018-10-01T07:10:04.675Z,19.30
2018-10-01T07:12:31.788Z,19.50
2018-10-01T07:14:58.918Z,19.80
2018-10-01T07:17:26.120Z,20.00
2018-10-01T07:19:53.107Z,20.10
2018-10-01T07:22:20.249Z,20.20
2018-10-01T07:24:47.296Z,20.20
2018-10-01T07:27:14.394Z,20.20
2018-10-01T07:29:41.516Z,20.30
2018-10-01T07:32:08.592Z,20.50
2018-10-01T07:34:35.695Z,20.60
2018-10-01T07:37:02.830Z,20.70
2018-10-01T07:39:29.926Z,20.70
2018-10-01T07:41:57.016Z,20.80
2018-10-01T07:44:24.100Z,20.90
2018-10-01T07:46:51.191Z,20.90
2018-10-01T07:49:18.272Z,21.10
2018-10-01T07:51:45.521Z,21.10
2018-10-01T07:54:12.660Z,21.20
2018-10-01T07:56:39.824Z,21.20
2018-10-01T07:59:06.946Z,21.20
2018-10-01T08:01:34.040Z,21.20
2018-10-01T08:04:01.124Z,21.30
2018-10-01T08:06:28.239Z,21.20
2018-10-01T08:08:55.340Z,21.10
2018-10-01T08:11:22.487Z,21.00
2018-10-01T08:13:49.588Z,21.00
2018-10-01T08:16:16.675Z,21.00
2018-10-01T08:18:43.816Z,20.90
2018-10-01T08:21:10.942Z,20.90
2018-10-01T08:23:38.133Z,20.90
2018-10-01T08:26:05.242Z,20.80
2018-10-01T08:28:32.331Z,20.80
2018-10-01T08:30:59.451Z,20.80
2018-10-01T08:33:26.549Z,20.70
2018-10-01T08:35:53.628Z,20.70
2018-10-01T08:38:20.871Z,20.70
2018-10-01T08:40:47.828Z,20.70
2018-10-01T08:43:14.911Z,20.70
2018-10-01T08:45:41.991Z,20.70
2018-10-01T08:48:09.760Z,20.70
2018-10-01T08:50:43.547Z,20.70
2018-10-01T08:53:19.210Z,20.70
2018-10-01T08:55:46.340Z,20.70
2018-10-01T08:58:13.429Z,20.70
2018-10-01T09:00:40.540Z,20.70
2018-10-01T09:03:07.667Z,20.70
2018-10-01T09:05:34.890Z,20.70
2018-10-01T09:08:01.934Z,20.80
2018-10-01T09:10:29.031Z,20.80
2018-10-01T09:12:56.136Z,20.80
2018-10-01T09:15:23.242Z,20.90
2018-10-01T09:17:50.381Z,20.90
2018-10-01T09:20:17.595Z,21.00
2018-10-01T09:22:44.657Z,21.00
2018-10-01T09:25:11.763Z,21.00
2018-10-01T09:27:38.862Z,21.00
2018-10-01T09:30:05.991Z,21.00
2018-10-01T09:32:33.133Z,21.00
2018-10-01T09:35:00.192Z,21.00
2018-10-01T09:37:27.379Z,21.10
2018-10-01T09:39:54.490Z,21.00
2018-10-01T09:42:21.648Z,21.00
2018-10-01T09:44:48.760Z,21.00
2018-10-01T09:47:15.885Z,21.00
2018-10-01T09:49:42.970Z,21.00
2018-10-01T09:52:10.107Z,21.00
2018-10-01T10:01:18.860Z,21.00
2018-10-01T10:03:46.003Z,21.00
2018-10-01T10:06:13.095Z,21.00
2018-10-01T10:08:40.237Z,21.00
2018-10-01T10:11:09.145Z,21.00
2018-10-01T10:13:36.250Z,21.00
2018-10-01T10:16:03.457Z,21.00
2018-10-01T10:18:30.567Z,20.90
2018-10-01T10:20:57.655Z,20.90
2018-10-01T10:23:24.747Z,20.90
2018-10-01T10:25:52.678Z,20.90
2018-10-01T10:28:19.837Z,20.90
2018-10-01T10:30:46.898Z,20.90
2018-10-01T10:33:14.017Z,20.80
2018-10-01T10:35:41.132Z,20.80
2018-10-01T10:38:08.301Z,20.80
2018-10-01T10:40:35.611Z,20.80
2018-10-01T10:43:02.716Z,20.80
2018-10-01T10:45:29.850Z,20.80
2018-10-01T10:47:56.984Z,20.80
2018-10-01T10:50:24.089Z,20.80
2018-10-01T10:52:51.195Z,20.90
2018-10-01T10:55:18.306Z,20.90
2018-10-01T10:57:45.395Z,21.00
2018-10-01T11:00:12.506Z,21.00
2018-10-01T11:02:39.710Z,21.00
2018-10-01T11:05:06.862Z,21.00
2018-10-01T11:07:33.926Z,21.00
2018-10-01T11:10:01.048Z,20.90
2018-10-01T11:12:28.210Z,20.90
2018-10-01T11:14:55.494Z,20.80
2018-10-01T11:17:22.411Z,20.80
2018-10-01T11:19:49.591Z,20.80
2018-10-01T11:22:16.654Z,20.80
2018-10-01T11:24:43.778Z,20.80
2018-10-01T11:27:10.900Z,20.80
2018-10-01T11:29:38.012Z,20.80
2018-10-01T11:32:05.287Z,20.90
2018-10-01T11:34:32.386Z,21.00
2018-10-01T11:36:59.428Z,21.10
2018-10-01T11:39:26.534Z,21.00
2018-10-01T11:41:53.631Z,20.50
2018-10-01T11:44:20.747Z,20.10
2018-10-01T11:46:48.123Z,19.90
2018-10-01T11:49:15.214Z,19.70
2018-10-01T11:51:42.448Z,19.60
2018-10-01T11:54:09.438Z,19.60
2018-10-01T11:56:36.539Z,19.50
2018-10-01T11:59:03.659Z,19.60
2018-10-01T12:01:30.788Z,19.70
2018-10-01T12:03:57.986Z,19.80
2018-10-01T12:06:25.040Z,19.80
2018-10-01T12:08:52.133Z,19.70
2018-10-01T12:11:19.439Z,19.60
2018-10-01T12:13:46.527Z,19.60
2018-10-01T12:16:13.907Z,19.60
2018-10-01T12:18:40.970Z,19.50
2018-10-01T12:21:08.164Z,19.50
2018-10-01T12:23:35.234Z,19.50
2018-10-01T12:26:02.342Z,19.60
2018-10-01T12:28:29.481Z,19.60
2018-10-01T12:30:56.576Z,19.70
2018-10-01T12:33:23.987Z,19.70
2018-10-01T12:35:51.254Z,19.80
2018-10-01T12:38:18.475Z,19.90
2018-10-01T12:40:45.839Z,20.00
2018-10-01T12:43:13.969Z,20.10
2018-10-01T12:45:41.182Z,20.00
2018-10-01T12:48:08.563Z,20.00
2018-10-01T12:50:35.869Z,20.00
2018-10-01T12:53:02.746Z,20.00
2018-10-01T12:55:29.920Z,20.00
2018-10-01T12:57:57.052Z,20.00
2018-10-01T13:00:24.191Z,20.10
2018-10-01T13:02:51.263Z,19.90
2018-10-01T13:05:18.718Z,19.70
2018-10-01T13:07:45.866Z,19.40
2018-10-01T13:10:13.410Z,19.30
2018-10-01T13:12:40.523Z,19.10
2018-10-01T13:15:07.644Z,19.10
2018-10-01T13:17:34.755Z,19.00
2018-10-01T13:20:02.031Z,19.10
2018-10-01T13:22:29.172Z,19.10
2018-10-01T13:24:56.350Z,19.10
2018-10-01T13:27:23.410Z,19.10
2018-10-01T13:29:50.546Z,19.00
2018-10-01T13:32:17.868Z,19.10
2018-10-01T13:34:45.011Z,19.20
2018-10-01T13:37:12.256Z,19.30
2018-10-01T13:39:39.355Z,19.50
2018-10-01T13:42:06.551Z,19.50
2018-10-01T13:44:33.738Z,19.60
2018-10-01T13:47:00.747Z,19.70
2018-10-01T13:49:27.843Z,19.70
2018-10-01T13:51:54.966Z,19.60
2018-10-01T13:54:22.119Z,19.60
2018-10-01T13:56:49.171Z,19.60
2018-10-01T13:59:16.269Z,19.60
2018-10-01T14:01:43.479Z,19.50
2018-10-01T14:04:10.500Z,19.50
2018-10-01T14:06:37.640Z,19.50
2018-10-01T14:09:06.887Z,19.60
2018-10-01T14:11:34.055Z,19.60
2018-10-01T14:14:01.221Z,19.50
2018-10-01T14:16:28.263Z,19.40
2018-10-01T14:18:55.375Z,19.20
2018-10-01T14:21:22.566Z,19.20
2018-10-01T14:23:49.731Z,19.20
2018-10-01T14:26:16.827Z,19.20
2018-10-01T14:28:44.026Z,19.20
2018-10-01T14:31:11.249Z,19.20
2018-10-01T14:33:38.268Z,19.10
2018-10-01T14:36:05.389Z,19.10
2018-10-01T14:38:32.518Z,19.10
2018-10-01T14:40:59.661Z,19.00
2018-10-01T14:43:26.759Z,19.10
2018-10-01T14:45:53.879Z,19.10
2018-10-01T14:48:21.007Z,19.10
2018-10-01T14:50:48.095Z,19.10
2018-10-01T14:53:15.178Z,19.10
2018-10-01T14:55:42.270Z,19.10
2018-10-01T14:58:09.383Z,19.10
2018-10-01T15:00:36.526Z,19.10
2018-10-01T15:03:03.587Z,19.10
2018-10-01T15:05:30.698Z,19.10
2018-10-01T15:07:57.898Z,19.10
2018-10-01T15:10:25.246Z,19.10
2018-10-01T15:12:52.535Z,19.10
2018-10-01T15:15:19.730Z,19.10
2018-10-01T15:17:46.961Z,19.00
2018-10-01T15:20:14.666Z,18.90
2018-10-01T15:22:41.994Z,18.90
2018-10-01T15:25:09.108Z,19.00
2018-10-01T15:27:36.318Z,18.80
2018-10-01T15:30:03.932Z,18.90
2018-10-01T15:32:31.006Z,19.00
2018-10-01T15:34:58.119Z,19.10
2018-10-01T15:37:25.615Z,19.20
2018-10-01T15:39:53.411Z,19.20
2018-10-01T15:42:20.514Z,19.30
2018-10-01T15:44:47.742Z,19.30
2018-10-01T15:47:14.844Z,19.40
2018-10-01T15:49:41.987Z,19.40
2018-10-01T15:52:09.134Z,19.40
2018-10-01T15:54:36.226Z,19.40
2018-10-01T15:57:03.348Z,19.40
2018-10-01T15:59:30.471Z,19.40
2018-10-01T16:01:57.593Z,19.50
2018-10-01T16:04:24.714Z,19.50
2018-10-01T16:06:51.852Z,19.50
2018-10-01T16:09:18.939Z,19.50
2018-10-01T16:11:46.053Z,19.60
2018-10-01T16:14:13.632Z,19.50
2018-10-01T16:16:40.751Z,19.60
2018-10-01T16:19:07.864Z,19.60
2018-10-01T16:21:34.975Z,19.60
2018-10-01T16:24:02.077Z,19.60
2018-10-01T16:26:29.339Z,19.80
2018-10-01T16:28:56.486Z,19.60
2018-10-01T16:31:23.649Z,19.60
2018-10-01T16:33:50.843Z,19.60
2018-10-01T16:36:18.182Z,19.60
2018-10-01T16:38:45.299Z,19.60
2018-10-01T16:41:12.499Z,19.60
2018-10-01T16:43:39.708Z,19.60
2018-10-01T16:46:06.883Z,19.60
2018-10-01T16:48:33.995Z,19.50
2018-10-01T16:51:01.101Z,19.50
2018-10-01T16:53:28.197Z,19.40
2018-10-01T16:55:55.303Z,19.40
2018-10-01T16:58:22.453Z,19.30
2018-10-01T17:00:49.507Z,19.30
2018-10-01T17:03:16.619Z,19.30
2018-10-01T17:05:43.752Z,19.30
2018-10-01T17:08:10.863Z,19.30
2018-10-01T17:10:37.954Z,19.20
2018-10-01T17:13:05.102Z,19.20
2018-10-01T17:15:32.158Z,19.30
2018-10-01T17:17:59.271Z,19.20
2018-10-01T17:20:26.356Z,19.20
2018-10-01T17:22:53.459Z,19.20
2018-10-01T17:25:20.584Z,19.20
2018-10-01T17:27:47.672Z,19.20
2018-10-01T17:30:14.812Z,19.20
2018-10-01T17:32:41.931Z,19.20
2018-10-01T17:35:09.047Z,19.20
2018-10-01T17:37:36.135Z,19.20
2018-10-01T17:40:03.241Z,19.20
2018-10-01T17:42:30.350Z,19.20
2018-10-01T17:44:57.484Z,19.20
2018-10-01T17:47:24.639Z,19.10
2018-10-01T17:49:51.759Z,19.20
2018-10-01T17:52:18.884Z,19.10
2018-10-01T17:54:46.000Z,19.20
2018-10-01T17:57:13.160Z,19.20
2018-10-01T17:59:40.299Z,19.10
2018-10-01T18:02:07.435Z,19.10
2018-10-01T18:04:34.550Z,19.10
2018-10-01T18:07:01.680Z,19.10
2018-10-01T18:09:28.779Z,19.10
2018-10-01T18:11:55.994Z,19.10
2018-10-01T18:14:23.037Z,19.10
2018-10-01T18:16:50.115Z,19.10
2018-10-01T18:19:17.323Z,19.10
2018-10-01T18:21:44.459Z,19.10
2018-10-01T18:24:11.575Z,19.10
2018-10-01T18:26:38.651Z,19.10
2018-10-01T18:29:05.742Z,19.10
2018-10-01T18:31:32.851Z,19.00
2018-10-01T18:34:00.015Z,19.00
2018-10-01T18:36:27.118Z,19.10
2018-10-01T18:38:54.220Z,19.10
2018-10-01T18:41:21.331Z,19.00
2018-10-01T18:43:48.701Z,19.10
2018-10-01T18:46:15.935Z,19.00
2018-10-01T18:48:43.070Z,19.10
2018-10-01T18:51:10.167Z,19.10
2018-10-01T18:53:37.267Z,19.00
2018-10-01T18:56:04.362Z,19.00
2018-10-01T18:58:31.460Z,19.10
2018-10-01T19:00:58.562Z,19.10
2018-10-01T19:03:25.788Z,19.10
2018-10-01T19:05:52.875Z,19.10
2018-10-01T19:08:20.035Z,19.10
2018-10-01T19:10:47.159Z,19.00
2018-10-01T19:13:14.251Z,19.00
2018-10-01T19:15:41.365Z,19.00
2018-10-01T19:18:08.534Z,19.00
2018-10-01T19:20:35.588Z,19.00
2018-10-01T19:23:02.669Z,19.00
2018-10-01T19:25:29.763Z,19.00
2018-10-01T19:27:56.855Z,19.00
2018-10-01T19:30:23.966Z,19.00
2018-10-01T19:32:51.304Z,19.00
2018-10-01T19:35:18.329Z,19.00
2018-10-01T19:37:45.404Z,19.00
2018-10-01T19:40:12.546Z,19.00
2018-10-01T19:42:39.637Z,19.00
2018-10-01T19:45:06.748Z,19.00
2018-10-01T19:47:33.820Z,19.00
2018-10-01T19:50:00.924Z,19.00
2018-10-01T19:52:28.050Z,19.00
2018-10-01T19:54:55.140Z,19.00
2018-10-01T19:57:22.286Z,19.00
2018-10-01T19:59:49.355Z,19.00
2018-10-01T20:02:16.485Z,18.90
2018-10-01T20:04:43.840Z,19.00
2018-10-01T20:07:10.880Z,19.00
2018-10-01T20:09:42.304Z,19.00
2018-10-01T20:12:09.573Z,19.00
2018-10-01T20:14:36.671Z,19.00
2018-10-01T20:17:03.900Z,18.90
2018-10-01T20:19:30.895Z,18.90
2018-10-01T20:21:58.047Z,18.90
2018-10-01T20:24:25.153Z,18.90
2018-10-01T20:26:52.290Z,19.00
2018-10-01T20:29:19.668Z,19.00
2018-10-01T20:31:46.499Z,19.00
2018-10-01T20:34:13.587Z,18.90
2018-10-01T20:36:40.711Z,18.90
2018-10-01T20:39:08.588Z,18.90
2018-10-01T20:41:35.833Z,18.90
2018-10-01T20:44:03.005Z,19.00
2018-10-01T20:46:30.093Z,18.90
2018-10-01T20:48:57.213Z,18.90
2018-10-01T20:51:24.306Z,18.90
2018-10-01T20:53:51.399Z,18.90
2018-10-01T20:56:18.517Z,18.90
2018-10-01T20:58:45.680Z,18.90
2018-10-01T21:01:12.731Z,18.90
2018-10-01T21:03:39.820Z,18.90
2018-10-01T21:06:06.916Z,18.90
2018-10-01T21:08:34.090Z,18.90
2018-10-01T21:11:01.108Z,18.90
2018-10-01T21:13:28.270Z,18.90
2018-10-01T21:15:55.339Z,18.90
2018-10-01T21:18:22.424Z,18.90
2018-10-01T21:20:49.568Z,18.90
2018-10-01T21:23:16.655Z,18.90
2018-10-01T21:25:43.730Z,18.90
2018-10-01T21:28:11.009Z,18.90
2018-10-01T21:30:38.108Z,18.90
2018-10-01T21:33:05.427Z,18.90
2018-10-01T21:35:33.591Z,18.90
2018-10-01T21:38:00.703Z,18.90
2018-10-01T21:40:27.803Z,18.90
2018-10-01T21:42:55.021Z,18.90
2018-10-01T21:45:22.151Z,18.90
2018-10-01T21:47:49.836Z,18.90
2018-10-01T21:50:16.954Z,18.90
2018-10-01T21:52:44.055Z,18.90
2018-10-01T21:55:11.135Z,18.90
2018-10-01T21:57:38.231Z,18.80
2018-10-01T22:00:06.975Z,18.90
2018-10-01T22:02:34.043Z,18.90
2018-10-01T22:05:01.141Z,18.90
2018-10-01T22:07:28.226Z,18.90
2018-10-01T22:09:55.315Z,18.90
2018-10-01T22:12:22.436Z,18.90
2018-10-01T22:14:49.523Z,18.90
2018-10-01T22:17:16.636Z,18.90
2018-10-01T22:19:43.717Z,18.80
2018-10-01T22:22:10.811Z,18.90
2018-10-01T22:24:37.898Z,18.90
2018-10-01T22:27:05.139Z,18.90
2018-10-01T22:29:32.348Z,18.80
2018-10-01T22:31:59.448Z,18.90
2018-10-01T22:34:26.515Z,18.90
2018-10-01T22:36:53.898Z,18.80
2018-10-01T22:39:21.150Z,18.80
2018-10-01T22:41:48.251Z,18.90
2018-10-01T22:44:15.562Z,18.80
2018-10-01T22:46:42.678Z,18.80
2018-10-01T22:49:09.771Z,18.80
2018-10-01T22:51:36.851Z,18.80
2018-10-01T22:54:03.994Z,18.80
2018-10-01T22:56:31.411Z,18.80
2018-10-01T22:58:58.509Z,18.80
2018-10-01T23:01:25.635Z,18.80
2018-10-01T23:03:52.723Z,18.80
2018-10-01T23:06:19.807Z,18.80
2018-10-01T23:08:46.901Z,18.80
2018-10-01T23:11:14.298Z,18.80
2018-10-01T23:13:41.339Z,18.80
2018-10-01T23:16:08.559Z,18.80
2018-10-01T23:18:35.642Z,18.80
2018-10-01T23:21:02.750Z,18.80
2018-10-01T23:23:29.998Z,18.80
2018-10-01T23:25:57.102Z,18.80
2018-10-01T23:28:24.214Z,18.80
2018-10-01T23:30:51.346Z,18.80
2018-10-01T23:33:18.454Z,18.80
2018-10-01T23:35:45.558Z,18.80
2018-10-01T23:38:12.686Z,18.80
2018-10-01T23:40:39.819Z,18.80
2018-10-01T23:43:07.088Z,18.80
2018-10-01T23:45:34.178Z,18.80
2018-10-01T23:48:01.283Z,18.80
2018-10-01T23:50:28.395Z,18.80
2018-10-01T23:52:55.514Z,18.70
2018-10-01T23:55:22.604Z,18.80
2018-10-01T23:57:49.714Z,18.80
